Acushnet, MA

8:25 PM EST on March 04, 2015 (GMT -0500)
Plymouth Municipal | Change Station
CLOSE
Current Station
Airport
Location: Plymouth,
Elevation: 148 ft
Nearby Weather Stations
Active Advisory: Winter Weather Advisory

Elev 148 ft 41.91 °N, 70.73 °W | Updated 33 minutes ago

Mostly Cloudy
Mostly Cloudy
38 °F
Feels Like 33 °F
N
7
Wind Variable Wind from SSW

Today
High -- | Low -- °F
--% Chance of Precip.
Yesterday
High -- | Low -- °F
Precip. -- in
6:14 AM 5:37 PM
Full, 100% visible
Pressure 29.84 in
Visibility 10.0 miles
Clouds Few 12000 ft
Windchill 33 °F
Dew Point 34 °F
Humidity 86%
Rainfall 0.09 in
Snow Depth Not available.
UV 0 out of 12
Pollen .50 out of 12
Air Quality Not available.
Flu Activity Not available.
METAR KPYM 050052Z AUTO 21006KT 10SM FEW120 03/01 A2984 RMK AO2 SLP104 T00330011

More Conditions Fewer Conditions

Pressure 29.84 in
Visibility 10.0 miles
Clouds Few 12000 ft
Windchill 33 °F
Dew Point 34 °F
Humidity 86%
Rainfall 0.09 in
Snow Depth Not available.
UV 0 out of 12
Pollen .50 out of 12
Air Quality Not available.
Flu Activity Not available.
METAR KPYM 050052Z AUTO 21006KT 10SM FEW120 03/01 A2984 RMK AO2 SLP104 T00330011

More Conditions Fewer Conditions

10-Day Weather Forecast

Almanac

Astronomy

Mar. 04, 2015 Rise Set
Actual Time
Civil Twilight
Nautical Twilight
Astronomical Twilight
Moon
Length of Visible Light
Length of Day
Tomorrow will be .
, % of the Moon is Illuminated

Today's Extremes

State Highs State Lows

Community

WunderPhotos

Upload Photos

1,802,617 photos uploaded!

WunderBlogs® & News

Nearby

Air Quality

  Air Quality AQ Index Pollutant
Not available.

Snow Depth

Station Depth Elevation

Earthquake Activity

City Distance Mag. Time & Date
Minimum magnitude displayed is 2.5.

Coastal Water Temperatures

Place Temperature

Nearby Weather Stations

Winter Weather Advisory
Statement as of 2:32 PM EST on March 04, 2015

... Winter Weather Advisory in effect from 7 PM this evening to
7 PM EST Thursday...

The National Weather Service in Taunton has issued a Winter
Weather Advisory... which is in effect from 7 PM this evening to 7
PM EST Thursday. The Winter Storm Watch is no longer in effect.

* Locations... southern Rhode Island and south coastal
Massachusetts.

* Hazard types... snow.

* Accumulations... 2 to 5 inches of snow.

* Timing... rain will change to snow tonight and continue through
early Thursday afternoon.

* Impacts... slower than normal travel due to slippery roads.

* Visibilities... one half mile at times.

Precautionary/preparedness actions...

A Winter Weather Advisory is issued for minor snow accumulations
which can have an affect on travel. Allow extra travel time and be
alert for slippery roads... especially on bridges and overpasses.




For the latest updates... please visit our webpage at
www.Weather.Gov/Boston

You can follow US on facebook at
www.Facebook.Com/nwsboston